createdAt,value
2023-05-09T00:04:34.421Z,3.81
2023-05-09T00:09:57.037Z,4.36
2023-05-09T00:15:17.122Z,3.82
2023-05-09T00:20:37.797Z,4.16
2023-05-09T00:25:57.776Z,3.40
2023-05-09T00:31:15.922Z,3.78
2023-05-09T00:36:52.495Z,3.99
2023-05-09T00:42:15.253Z,3.44
2023-05-09T00:47:38.334Z,3.88
2023-05-09T00:53:03.431Z,5.51
2023-05-09T00:58:27.267Z,3.55
2023-05-09T01:03:51.111Z,4.52
2023-05-09T01:09:50.670Z,4.91
2023-05-09T01:15:16.789Z,4.11
2023-05-09T01:20:41.649Z,3.14
2023-05-09T01:26:04.200Z,6.09
2023-05-09T01:31:24.218Z,3.76
2023-05-09T01:36:46.020Z,3.78
2023-05-09T01:42:22.678Z,4.23
2023-05-09T01:47:40.593Z,4.12
2023-05-09T01:53:21.520Z,5.10
2023-05-09T01:58:39.483Z,4.28
2023-05-09T02:04:25.397Z,4.13
2023-05-09T02:09:43.579Z,3.39
2023-05-09T02:15:08.664Z,4.56
2023-05-09T02:20:28.150Z,3.56
2023-05-09T02:25:46.682Z,3.92
2023-05-09T02:31:05.693Z,5.18
2023-05-09T02:36:23.396Z,4.19
2023-05-09T02:41:41.315Z,4.12
2023-05-09T02:47:03.279Z,6.02
2023-05-09T03:07:32.506Z,3.92
2023-05-09T03:12:51.631Z,3.99
2023-05-09T03:18:14.979Z,4.34
2023-05-09T03:23:33.336Z,3.78
2023-05-09T03:28:50.768Z,3.28
2023-05-09T03:34:14.409Z,4.42
2023-05-09T03:39:38.327Z,4.28
2023-05-09T03:44:58.888Z,5.01
2023-05-09T03:50:24.396Z,6.14
2023-05-09T03:55:44.122Z,4.01
2023-05-09T04:01:08.065Z,4.72
2023-05-09T04:06:31.038Z,5.62
2023-05-09T04:11:57.104Z,4.15
2023-05-09T04:17:18.577Z,5.06
2023-05-09T04:22:38.570Z,5.39
2023-05-09T04:28:14.925Z,6.14
2023-05-09T04:34:02.603Z,5.88
2023-05-09T04:39:22.411Z,5.24
2023-05-09T04:44:47.404Z,4.06
2023-05-09T04:50:09.529Z,6.51
2023-05-09T04:55:31.225Z,4.99
2023-05-09T05:00:56.343Z,5.96
2023-05-09T05:06:22.060Z,5.41
2023-05-09T05:11:58.771Z,6.34
2023-05-09T05:17:13.586Z,7.42
2023-05-09T05:22:38.464Z,6.25
2023-05-09T05:28:01.438Z,7.02
2023-05-09T05:33:21.417Z,6.09
2023-05-09T05:38:42.903Z,6.14
2023-05-09T05:44:21.525Z,7.02
2023-05-09T05:49:41.684Z,6.69
2023-05-09T05:55:04.854Z,6.52
2023-05-09T06:00:28.028Z,6.60
2023-05-09T06:05:46.485Z,6.46
2023-05-09T06:11:09.304Z,6.44
2023-05-09T06:16:27.377Z,7.73
2023-05-09T06:21:48.700Z,7.28
2023-05-09T06:27:10.885Z,7.27
2023-05-09T06:32:31.732Z,7.05
2023-05-09T06:37:56.404Z,7.18
2023-05-09T06:43:18.941Z,6.43
2023-05-09T06:48:43.759Z,7.50
2023-05-09T06:54:08.492Z,7.30
2023-05-09T06:59:29.711Z,7.27
2023-05-09T07:05:14.884Z,7.61
2023-05-09T07:10:32.717Z,6.87
2023-05-09T07:15:56.997Z,6.91
2023-05-09T07:21:24.312Z,7.77
2023-05-09T07:27:09.841Z,7.79
2023-05-09T07:32:29.174Z,7.26
2023-05-09T07:37:53.039Z,8.39
2023-05-09T07:43:14.818Z,8.11
2023-05-09T07:48:40.428Z,10.10
2023-05-09T07:54:03.945Z,8.97
2023-05-09T07:59:28.336Z,7.73
2023-05-09T08:04:52.039Z,9.27
2023-05-09T08:10:33.526Z,10.25
2023-05-09T08:16:23.813Z,9.89
2023-05-09T08:21:47.389Z,9.79
2023-05-09T08:27:10.471Z,8.52
2023-05-09T08:33:07.519Z,10.34
2023-05-09T08:38:31.401Z,7.26
2023-05-09T08:43:55.931Z,9.16
2023-05-09T08:49:20.276Z,7.68
2023-05-09T08:54:44.668Z,7.26
2023-05-09T09:00:04.121Z,7.43
2023-05-09T09:05:41.369Z,6.23
2023-05-09T09:10:49.775Z,6.37
2023-05-09T09:16:08.952Z,8.68
2023-05-09T09:21:29.925Z,5.30
2023-05-09T09:26:50.026Z,7.04
2023-05-09T09:32:10.624Z,6.15
2023-05-09T09:37:58.487Z,6.24
2023-05-09T09:43:20.549Z,6.16
2023-05-09T09:48:51.269Z,5.40
2023-05-09T09:54:16.095Z,5.00
2023-05-09T09:59:40.184Z,6.32
2023-05-09T10:05:38.502Z,6.91
2023-05-09T10:11:01.786Z,5.44
2023-05-09T10:16:42.774Z,4.71
2023-05-09T10:22:08.936Z,5.41
2023-05-09T10:27:30.580Z,5.81
2023-05-09T10:33:16.208Z,6.25
2023-05-09T10:38:39.712Z,4.26
2023-05-09T10:44:04.441Z,4.65
2023-05-09T10:49:29.299Z,4.23
2023-05-09T10:54:51.669Z,4.51
2023-05-09T11:00:23.406Z,4.28
2023-05-09T11:05:45.674Z,4.68
2023-05-09T11:11:30.800Z,5.47
2023-05-09T11:16:51.351Z,3.70
2023-05-09T11:22:15.205Z,3.69
2023-05-09T11:27:40.129Z,3.36
2023-05-09T11:33:02.460Z,2.26
2023-05-09T11:38:27.560Z,6.82
2023-05-09T11:43:57.265Z,4.78
2023-05-09T11:49:20.912Z,2.81
2023-05-09T11:54:43.560Z,4.06
2023-05-09T12:00:07.126Z,2.95
2023-05-09T12:05:34.683Z,2.03
2023-05-09T12:10:54.938Z,4.91
2023-05-09T12:16:27.231Z,7.04
2023-05-09T12:21:51.795Z,3.08
2023-05-09T12:27:16.148Z,4.62
2023-05-09T12:32:41.101Z,4.43
2023-05-09T12:38:04.345Z,2.43
2023-05-09T12:43:29.380Z,2.84
2023-05-09T12:48:49.382Z,3.73
2023-05-09T12:54:12.213Z,2.92
2023-05-09T12:59:33.474Z,2.74
2023-05-09T13:04:53.574Z,2.06
2023-05-09T13:10:26.875Z,2.31
2023-05-09T13:15:48.976Z,1.98
2023-05-09T13:21:13.529Z,2.34
2023-05-09T13:26:53.203Z,2.81
2023-05-09T13:32:22.403Z,2.78
2023-05-09T13:37:46.513Z,2.46
2023-05-09T13:43:11.834Z,2.87
2023-05-09T13:48:36.613Z,2.39
2023-05-09T13:54:01.567Z,2.82
2023-05-09T13:59:25.888Z,1.58
2023-05-09T14:05:04.945Z,1.85
2023-05-09T14:10:29.376Z,2.00
2023-05-09T14:15:50.440Z,1.61
2023-05-09T14:21:15.248Z,2.04
2023-05-09T14:26:38.012Z,1.65
2023-05-09T14:32:01.575Z,1.93
2023-05-09T14:37:23.731Z,1.59
2023-05-09T14:42:44.238Z,2.01
2023-05-09T14:48:03.715Z,1.96
2023-05-09T14:53:28.063Z,1.84
2023-05-09T14:58:52.620Z,2.36
2023-05-09T15:04:17.695Z,1.84
2023-05-09T15:09:35.522Z,2.08
2023-05-09T15:14:54.676Z,2.37
2023-05-09T15:20:44.151Z,2.61
2023-05-09T15:26:05.032Z,1.46
2023-05-09T15:31:29.307Z,1.47
2023-05-09T15:36:53.220Z,1.76
2023-05-09T15:42:16.999Z,1.62
2023-05-09T15:47:38.856Z,2.01
2023-05-09T15:53:03.857Z,1.37
2023-05-09T15:58:28.555Z,1.36
2023-05-09T16:03:49.941Z,2.00
2023-05-09T16:09:14.796Z,1.29
2023-05-09T16:14:39.997Z,2.32
2023-05-09T16:20:31.248Z,2.28
2023-05-09T16:25:50.441Z,1.82
2023-05-09T16:31:14.932Z,1.61
2023-05-09T16:36:40.706Z,1.87
2023-05-09T16:42:01.825Z,3.64
2023-05-09T16:47:26.581Z,2.78
2023-05-09T16:53:26.347Z,1.94
2023-05-09T16:58:46.016Z,1.69
2023-05-09T17:04:10.498Z,2.19
2023-05-09T17:09:35.790Z,2.00
2023-05-09T17:14:54.650Z,1.92
2023-05-09T17:20:17.184Z,1.38
2023-05-09T17:25:37.659Z,1.60
2023-05-09T17:31:05.537Z,1.78
2023-05-09T17:36:28.704Z,2.12
2023-05-09T17:41:53.489Z,2.18
2023-05-09T17:47:18.699Z,2.68
2023-05-09T17:52:43.840Z,2.07
2023-05-09T17:58:09.004Z,3.85
2023-05-09T18:03:34.156Z,2.78
2023-05-09T18:09:12.429Z,2.76
2023-05-09T18:14:36.822Z,3.13
2023-05-09T18:19:55.393Z,3.30
2023-05-09T18:25:14.401Z,2.67
2023-05-09T18:30:36.454Z,3.61
2023-05-09T18:36:20.478Z,2.78
2023-05-09T18:41:42.612Z,1.07
2023-05-09T18:47:06.892Z,0.79
2023-05-09T18:52:28.018Z,0.40
2023-05-09T18:57:49.548Z,3.14
2023-05-09T19:03:12.685Z,0.28
2023-05-09T19:08:37.092Z,0.91
2023-05-09T19:13:59.936Z,0.58
2023-05-09T19:19:47.259Z,0.80
2023-05-09T19:25:07.864Z,0.70
2023-05-09T19:30:32.732Z,1.16
2023-05-09T19:35:58.163Z,1.12
2023-05-09T19:41:43.211Z,1.99
2023-05-09T19:47:03.838Z,0.56
2023-05-09T19:52:28.070Z,0.83
2023-05-09T19:57:52.835Z,3.11
2023-05-09T20:03:14.291Z,0.94
2023-05-09T20:08:33.365Z,1.49
2023-05-09T20:13:57.230Z,1.45
2023-05-09T20:19:18.586Z,1.24
2023-05-09T20:24:40.159Z,0.98
2023-05-09T20:30:02.073Z,1.30
2023-05-09T20:35:26.814Z,1.00
2023-05-09T20:40:50.774Z,1.54
2023-05-09T20:46:12.852Z,1.32
2023-05-09T20:51:40.913Z,3.21
2023-05-09T20:57:00.521Z,2.53
2023-05-09T21:02:25.001Z,1.49
2023-05-09T21:07:46.555Z,1.76
2023-05-09T21:13:12.676Z,1.86
2023-05-09T21:18:36.254Z,2.37
2023-05-09T21:24:00.293Z,2.39
2023-05-09T21:29:25.080Z,2.10
2023-05-09T21:34:49.074Z,1.84
2023-05-09T21:40:18.032Z,1.91
2023-05-09T21:45:36.586Z,1.20
2023-05-09T21:51:13.833Z,1.93
2023-05-09T21:56:36.199Z,1.38
2023-05-09T22:02:01.025Z,0.83
2023-05-09T22:07:26.108Z,2.14
2023-05-09T22:12:50.741Z,2.06
2023-05-09T22:18:15.092Z,0.71
2023-05-09T22:23:40.803Z,0.62
2023-05-09T22:29:00.799Z,1.66
2023-05-09T22:34:44.856Z,1.45
2023-05-09T22:40:05.709Z,1.45
2023-05-09T22:45:32.193Z,0.55
2023-05-09T22:50:57.109Z,2.13
2023-05-09T22:56:21.026Z,0.71
2023-05-09T23:01:43.725Z,0.51
2023-05-09T23:07:06.849Z,0.77
2023-05-09T23:12:31.728Z,0.25
2023-05-09T23:17:55.767Z,0.28
2023-05-09T23:23:17.503Z,0.12
2023-05-09T23:28:35.716Z,0.27
2023-05-09T23:34:02.148Z,0.93
2023-05-09T23:39:21.365Z,0.12
2023-05-09T23:44:46.569Z,0.51
2023-05-09T23:50:09.816Z,0.23
2023-05-09T23:55:35.369Z,0.10
